createdAt,value
2024-04-12T00:01:43.781Z,15.32
2024-04-12T00:04:11.713Z,14.61
2024-04-12T00:06:46.449Z,15.19
2024-04-12T00:09:19.282Z,15.05
2024-04-12T00:11:54.589Z,14.97
2024-04-12T00:14:23.143Z,14.98
2024-04-12T00:16:54.281Z,14.85
2024-04-12T00:19:22.542Z,15.57
2024-04-12T00:21:57.430Z,15.47
2024-04-12T00:24:26.134Z,14.89
2024-04-12T00:26:57.713Z,15.28
2024-04-12T00:29:29.278Z,15.28
2024-04-12T00:32:05.506Z,15.44
2024-04-12T00:34:38.823Z,14.95
2024-04-12T00:37:16.914Z,15.46
2024-04-12T00:39:50.738Z,15.53
2024-04-12T00:42:27.319Z,15.32
2024-04-12T00:44:55.810Z,15.26
2024-04-12T00:47:29.816Z,15.01
2024-04-12T00:49:57.657Z,15.36
2024-04-12T00:52:34.658Z,15.42
2024-04-12T00:55:08.536Z,15.32
2024-04-12T00:57:40.020Z,15.46
2024-04-12T01:00:10.332Z,15.28
2024-04-12T01:02:44.328Z,15.02
2024-04-12T01:05:14.308Z,15.00
2024-04-12T01:07:50.934Z,14.86
2024-04-12T01:10:26.047Z,15.07
2024-04-12T01:12:57.429Z,15.32
2024-04-12T01:15:26.307Z,15.40
2024-04-12T01:17:58.130Z,15.38
2024-04-12T01:20:26.614Z,15.46
2024-04-12T01:22:59.735Z,15.38
2024-04-12T01:25:30.174Z,15.16
2024-04-12T01:27:59.807Z,15.26
2024-04-12T01:30:26.695Z,14.93
2024-04-12T01:32:58.701Z,15.03
2024-04-12T01:35:26.086Z,14.91
2024-04-12T01:37:59.156Z,14.88
2024-04-12T01:40:30.620Z,15.02
2024-04-12T01:43:01.746Z,14.80
2024-04-12T01:45:29.280Z,14.71
2024-04-12T01:47:59.137Z,14.63
2024-04-12T01:50:25.952Z,14.30
2024-04-12T01:52:58.707Z,14.43
2024-04-12T01:55:33.778Z,14.79
2024-04-12T01:58:03.202Z,14.54
2024-04-12T02:00:29.919Z,14.74
2024-04-12T02:03:00.282Z,14.72
2024-04-12T02:05:30.834Z,14.96
2024-04-12T02:08:00.724Z,14.97
2024-04-12T02:10:35.258Z,14.88
2024-04-12T02:13:04.872Z,14.93
2024-04-12T02:15:31.703Z,14.78
2024-04-12T02:18:04.244Z,14.92
2024-04-12T02:20:35.773Z,15.05
2024-04-12T02:23:06.346Z,15.01
2024-04-12T02:25:37.525Z,14.74
2024-04-12T02:28:09.640Z,14.83
2024-04-12T02:30:42.588Z,14.40
2024-04-12T02:33:12.778Z,14.74
2024-04-12T02:35:42.650Z,14.67
2024-04-12T02:38:16.726Z,14.82
2024-04-12T02:40:47.871Z,14.85
2024-04-12T02:43:19.290Z,15.01
2024-04-12T02:45:49.458Z,14.81
2024-04-12T02:48:21.366Z,14.58
2024-04-12T02:50:49.601Z,14.62
2024-04-12T02:53:21.381Z,14.19
2024-04-12T02:56:01.770Z,14.22
2024-04-12T02:58:39.102Z,14.56
2024-04-12T03:01:09.033Z,14.36
2024-04-12T03:03:42.448Z,14.51
2024-04-12T03:06:11.326Z,14.71
2024-04-12T03:08:41.203Z,14.77
2024-04-12T03:11:15.670Z,14.72
2024-04-12T03:13:47.173Z,14.77
2024-04-12T03:16:14.950Z,14.80
2024-04-12T03:18:46.926Z,14.94
2024-04-12T03:21:17.219Z,14.73
2024-04-12T03:23:48.313Z,14.41
2024-04-12T03:26:23.012Z,14.65
2024-04-12T03:28:55.254Z,14.10
2024-04-12T03:31:28.257Z,14.65
2024-04-12T03:34:01.646Z,14.53
2024-04-12T03:36:41.174Z,14.90
2024-04-12T03:39:31.350Z,14.66
2024-04-12T03:42:06.233Z,14.58
2024-04-12T03:44:46.594Z,14.68
2024-04-12T03:47:14.903Z,14.69
2024-04-12T03:49:45.826Z,14.33
2024-04-12T03:52:14.910Z,14.35
2024-04-12T03:54:47.629Z,14.25
2024-04-12T03:57:30.188Z,14.88
2024-04-12T04:00:01.780Z,14.31
2024-04-12T04:02:31.545Z,14.54
2024-04-12T04:05:14.859Z,14.95
2024-04-12T04:07:42.953Z,14.81
2024-04-12T04:10:16.469Z,15.07
2024-04-12T04:12:51.066Z,15.17
2024-04-12T04:15:20.677Z,14.68
2024-04-12T04:17:51.109Z,14.44
2024-04-12T04:20:18.549Z,13.74
2024-04-12T04:22:50.804Z,13.38
2024-04-12T04:25:22.335Z,13.88
2024-04-12T04:27:58.860Z,13.90
2024-04-12T04:30:26.799Z,14.03
2024-04-12T04:32:56.556Z,14.06
2024-04-12T04:35:28.547Z,14.10
2024-04-12T04:37:59.062Z,13.99
2024-04-12T04:40:26.574Z,13.89
2024-04-12T04:42:59.023Z,13.89
2024-04-12T04:45:32.681Z,13.93
2024-04-12T04:48:02.135Z,14.13
2024-04-12T04:50:29.358Z,14.02
2024-04-12T04:53:03.828Z,14.29
2024-04-12T04:55:33.500Z,14.26
2024-04-12T04:58:09.937Z,14.39
2024-04-12T05:00:42.405Z,14.12
2024-04-12T05:03:15.446Z,14.31
2024-04-12T05:05:44.088Z,14.01
2024-04-12T05:08:15.973Z,14.09
2024-04-12T05:10:43.106Z,14.29
2024-04-12T05:13:18.437Z,14.12
2024-04-12T05:15:51.226Z,14.24
2024-04-12T05:18:21.721Z,14.05
2024-04-12T05:20:49.536Z,14.06
2024-04-12T05:23:21.210Z,13.92
2024-04-12T05:25:49.708Z,13.69
2024-04-12T05:28:21.949Z,13.69
2024-04-12T05:30:50.925Z,13.70
2024-04-12T05:33:21.586Z,14.00
2024-04-12T05:35:49.198Z,14.45
2024-04-12T05:38:23.104Z,14.50
2024-04-12T05:40:53.596Z,14.28
2024-04-12T05:43:26.231Z,14.20
2024-04-12T05:45:54.654Z,14.20
2024-04-12T05:48:25.395Z,13.82
2024-04-12T05:50:55.694Z,13.93
2024-04-12T05:53:27.268Z,14.29
2024-04-12T05:56:14.220Z,14.27
2024-04-12T05:58:46.442Z,14.04
2024-04-12T06:01:13.267Z,13.69
2024-04-12T06:03:53.544Z,13.94
2024-04-12T06:06:25.632Z,14.37
2024-04-12T06:08:53.906Z,14.33
2024-04-12T06:11:23.859Z,13.83
2024-04-12T06:13:55.758Z,14.55
2024-04-12T06:16:26.125Z,14.77
2024-04-12T06:18:53.233Z,14.64
2024-04-12T06:21:23.707Z,14.64
2024-04-12T06:23:56.662Z,14.86
2024-04-12T06:26:27.159Z,14.90
2024-04-12T06:29:02.926Z,15.02
2024-04-12T06:31:36.567Z,15.19
2024-04-12T06:34:05.838Z,15.41
2024-04-12T06:36:36.172Z,16.11
2024-04-12T06:39:05.999Z,16.28
2024-04-12T06:41:35.795Z,16.81
2024-04-12T06:44:08.481Z,17.30
2024-04-12T06:46:38.046Z,18.36
2024-04-12T06:49:09.238Z,19.18
2024-04-12T06:51:45.203Z,18.91
2024-04-12T06:54:15.460Z,19.06
2024-04-12T06:56:44.936Z,19.39
2024-04-12T06:59:14.728Z,19.03
2024-04-12T07:01:45.141Z,18.76
2024-04-12T07:04:12.276Z,19.55
2024-04-12T07:06:44.533Z,20.03
2024-04-12T07:09:11.853Z,19.80
2024-04-12T07:11:42.419Z,19.31
2024-04-12T07:14:09.299Z,19.68
2024-04-12T07:16:41.274Z,19.71
2024-04-12T07:19:10.271Z,18.92
2024-04-12T07:21:40.016Z,19.95
2024-04-12T07:24:07.520Z,19.84
2024-04-12T07:26:38.654Z,19.76
2024-04-12T07:29:07.869Z,20.65
2024-04-12T07:31:42.722Z,20.18
2024-04-12T07:34:12.279Z,19.71
2024-04-12T07:36:42.167Z,19.31
2024-04-12T07:39:09.753Z,19.97
2024-04-12T07:41:45.249Z,19.92
2024-04-12T07:44:13.722Z,20.52
2024-04-12T07:46:50.415Z,20.96
2024-04-12T07:49:20.156Z,21.61
2024-04-12T07:51:50.801Z,20.89
2024-04-12T07:54:17.876Z,21.11
2024-04-12T07:57:08.516Z,21.57
2024-04-12T07:59:39.551Z,21.41
2024-04-12T08:02:20.882Z,21.69
2024-04-12T08:04:50.628Z,21.74
2024-04-12T08:07:31.056Z,21.77
2024-04-12T08:10:11.013Z,22.00
2024-04-12T08:12:40.394Z,22.15
2024-04-12T08:15:08.761Z,22.10
2024-04-12T08:17:41.753Z,22.71
2024-04-12T08:20:15.043Z,21.32
2024-04-12T08:22:45.837Z,22.28
2024-04-12T08:25:20.128Z,22.85
2024-04-12T08:27:55.807Z,22.93
2024-04-12T08:30:23.366Z,22.31
2024-04-12T08:32:57.077Z,22.77
2024-04-12T08:35:26.767Z,22.76
2024-04-12T08:37:56.254Z,22.74
2024-04-12T08:40:27.220Z,22.58
2024-04-12T08:43:11.245Z,22.02
2024-04-12T08:45:44.822Z,21.65
2024-04-12T08:48:19.453Z,21.35
2024-04-12T08:51:05.404Z,22.08
2024-04-12T08:53:36.768Z,21.73
2024-04-12T08:56:03.753Z,22.49
2024-04-12T08:58:33.246Z,21.65
2024-04-12T09:01:02.957Z,22.19
2024-04-12T09:03:44.158Z,22.30
2024-04-12T09:06:18.028Z,22.33
2024-04-12T09:08:48.735Z,22.27
2024-04-12T09:11:15.982Z,22.39
2024-04-12T09:13:48.543Z,22.82
2024-04-12T09:16:20.469Z,22.99
2024-04-12T09:18:52.501Z,22.73
2024-04-12T09:21:26.707Z,23.08
2024-04-12T09:23:57.897Z,22.51
2024-04-12T09:26:26.363Z,22.20
2024-04-12T09:29:03.270Z,22.17
2024-04-12T09:31:50.218Z,22.78
2024-04-12T09:34:33.744Z,22.68
2024-04-12T09:37:28.646Z,23.21
2024-04-12T09:40:05.983Z,23.68
2024-04-12T09:42:46.365Z,23.30
2024-04-12T09:45:18.508Z,23.39
2024-04-12T09:48:05.749Z,23.29
2024-04-12T09:50:51.731Z,23.62
2024-04-12T09:53:40.026Z,23.53
2024-04-12T09:56:26.616Z,23.79
2024-04-12T09:59:16.055Z,23.55
2024-04-12T10:02:11.861Z,22.91
2024-04-12T10:04:57.684Z,23.57
2024-04-12T10:07:45.296Z,23.73
2024-04-12T10:10:34.189Z,23.66
2024-04-12T10:13:23.214Z,22.94
2024-04-12T10:16:13.016Z,24.57
2024-04-12T10:18:57.475Z,24.11
2024-04-12T10:21:43.175Z,24.95
2024-04-12T10:24:28.853Z,24.03
2024-04-12T10:27:18.190Z,24.06
2024-04-12T10:30:04.296Z,24.15
2024-04-12T10:32:52.073Z,24.31
2024-04-12T10:35:40.086Z,23.58
2024-04-12T10:38:22.809Z,23.99
2024-04-12T10:41:04.126Z,24.04
2024-04-12T10:43:42.777Z,23.67
2024-04-12T10:46:12.443Z,24.44
2024-04-12T10:48:43.654Z,24.73
2024-04-12T10:51:14.596Z,24.58
2024-04-12T10:53:49.698Z,25.06
2024-04-12T10:56:23.094Z,25.30
2024-04-12T10:58:57.969Z,25.69
2024-04-12T11:01:28.428Z,25.87
2024-04-12T11:04:04.245Z,25.25
2024-04-12T11:06:35.231Z,25.26
2024-04-12T11:09:07.155Z,23.96
2024-04-12T11:11:35.589Z,24.05
2024-04-12T11:14:16.769Z,24.61
2024-04-12T11:17:08.199Z,25.11
2024-04-12T11:19:55.076Z,23.47
2024-04-12T11:22:43.163Z,24.58
2024-04-12T11:25:31.924Z,24.69
2024-04-12T11:28:17.730Z,24.79
2024-04-12T11:31:08.942Z,24.64
2024-04-12T11:33:47.519Z,25.55
2024-04-12T11:36:21.288Z,24.79
2024-04-12T11:38:55.763Z,25.97
2024-04-12T11:41:25.644Z,25.48
2024-04-12T11:43:56.501Z,25.47
2024-04-12T11:46:25.982Z,26.05
2024-04-12T11:48:58.168Z,25.68
2024-04-12T11:51:25.400Z,25.97
2024-04-12T11:53:55.448Z,25.85
2024-04-12T11:56:25.343Z,26.20
2024-04-12T11:58:59.298Z,25.17
2024-04-12T12:01:30.186Z,24.84
2024-04-12T12:03:59.924Z,25.24
2024-04-12T12:06:26.974Z,26.51
2024-04-12T12:08:58.680Z,26.74
2024-04-12T12:11:25.706Z,27.24
2024-04-12T12:13:55.067Z,27.69
2024-04-12T12:16:21.856Z,27.46
2024-04-12T12:18:54.124Z,27.56
2024-04-12T12:21:21.464Z,27.31
2024-04-12T12:23:51.486Z,27.92
2024-04-12T12:26:23.335Z,26.36
2024-04-12T12:28:52.812Z,26.07
2024-04-12T12:31:19.799Z,26.59
2024-04-12T12:33:51.632Z,26.53
2024-04-12T12:36:22.822Z,26.54
2024-04-12T12:38:52.435Z,25.84
2024-04-12T12:41:19.157Z,26.04
2024-04-12T12:43:48.804Z,26.04
2024-04-12T12:46:18.378Z,25.42
2024-04-12T12:48:50.258Z,25.03
2024-04-12T12:51:27.455Z,24.81
2024-04-12T12:54:01.336Z,24.70
2024-04-12T12:56:32.749Z,25.79
2024-04-12T12:59:04.282Z,26.08
2024-04-12T13:01:36.353Z,26.88
2024-04-12T13:04:08.590Z,27.08
2024-04-12T13:06:38.501Z,27.26
2024-04-12T13:09:18.927Z,27.35
2024-04-12T13:11:47.211Z,27.05
2024-04-12T13:14:18.964Z,26.92
2024-04-12T13:16:45.848Z,26.00
2024-04-12T13:19:17.927Z,26.89
2024-04-12T13:21:50.702Z,27.22
2024-04-12T13:24:21.138Z,27.20
2024-04-12T13:26:52.070Z,27.27
2024-04-12T13:29:22.090Z,26.92
2024-04-12T13:31:51.746Z,26.83
2024-04-12T13:34:23.451Z,26.28
2024-04-12T13:36:54.372Z,26.75
2024-04-12T13:39:26.433Z,27.39
2024-04-12T13:41:57.701Z,26.98
2024-04-12T13:44:50.184Z,27.33
2024-04-12T13:47:35.532Z,27.74
2024-04-12T13:50:28.590Z,27.31
2024-04-12T13:53:01.043Z,26.90
2024-04-12T13:55:36.158Z,27.28
2024-04-12T13:58:03.058Z,27.26
2024-04-12T14:00:37.492Z,28.20
2024-04-12T14:03:08.562Z,28.11
2024-04-12T14:05:38.551Z,27.81
2024-04-12T14:08:08.666Z,28.13
2024-04-12T14:10:41.671Z,27.47
2024-04-12T14:13:18.222Z,27.96
2024-04-12T14:15:48.528Z,27.95
2024-04-12T14:18:17.693Z,27.44
2024-04-12T14:20:47.633Z,27.64
2024-04-12T14:23:16.966Z,27.74
2024-04-12T14:25:46.474Z,27.58
2024-04-12T14:28:13.201Z,28.32
2024-04-12T14:30:42.651Z,28.55
2024-04-12T14:33:09.471Z,28.53
2024-04-12T14:35:42.874Z,28.18
2024-04-12T14:38:16.945Z,28.24
2024-04-12T14:40:53.212Z,27.80
2024-04-12T14:43:23.216Z,27.79
2024-04-12T14:45:49.989Z,27.72
2024-04-12T14:48:19.447Z,28.41
2024-04-12T14:50:50.392Z,28.25
2024-04-12T14:53:19.960Z,28.52
2024-04-12T14:55:50.612Z,28.51
2024-04-12T14:58:21.629Z,28.08
2024-04-12T15:00:49.625Z,27.42
2024-04-12T15:03:35.484Z,27.64
2024-04-12T15:06:21.229Z,28.02
2024-04-12T15:09:07.022Z,28.00
2024-04-12T15:11:54.900Z,28.17
2024-04-12T15:14:40.597Z,28.38
2024-04-12T15:17:25.994Z,28.80
2024-04-12T15:20:11.629Z,28.87
2024-04-12T15:22:58.020Z,28.13
2024-04-12T15:25:43.520Z,27.85
2024-04-12T15:28:31.715Z,27.87
2024-04-12T15:31:17.661Z,27.84
2024-04-12T15:34:03.154Z,27.55
2024-04-12T15:36:48.516Z,27.84
2024-04-12T15:39:33.544Z,28.39
2024-04-12T15:42:18.991Z,28.08
2024-04-12T15:45:07.447Z,28.68
2024-04-12T15:47:34.506Z,28.14
2024-04-12T15:50:20.952Z,28.52
2024-04-12T15:53:10.769Z,28.00
2024-04-12T15:55:58.393Z,28.44
2024-04-12T15:58:48.098Z,27.68
2024-04-12T16:01:36.098Z,27.80
2024-04-12T16:04:25.934Z,27.90
2024-04-12T16:07:11.381Z,27.76
2024-04-12T16:10:03.333Z,28.38
2024-04-12T16:12:37.137Z,28.30
2024-04-12T16:15:07.699Z,28.04
2024-04-12T16:17:43.332Z,27.91
2024-04-12T16:20:15.533Z,27.71
2024-04-12T16:22:42.245Z,27.53
2024-04-12T16:25:15.360Z,27.59
2024-04-12T16:27:42.066Z,27.69
2024-04-12T16:30:12.914Z,27.63
2024-04-12T16:32:45.414Z,27.56
2024-04-12T16:35:14.851Z,26.59
2024-04-12T16:37:44.482Z,25.99
2024-04-12T16:40:15.810Z,26.00
2024-04-12T16:42:42.552Z,25.75
2024-04-12T16:45:12.014Z,25.43
2024-04-12T16:47:38.884Z,25.44
2024-04-12T16:50:10.928Z,25.20
2024-04-12T16:52:37.700Z,25.11
2024-04-12T16:55:12.168Z,24.80
2024-04-12T16:57:39.087Z,24.70
2024-04-12T17:00:10.648Z,24.37
2024-04-12T17:02:37.561Z,24.33
2024-04-12T17:05:07.554Z,24.02
2024-04-12T17:07:40.079Z,24.27
2024-04-12T17:10:11.379Z,24.14
2024-04-12T17:12:41.230Z,24.03
2024-04-12T17:15:13.321Z,23.85
2024-04-12T17:17:40.520Z,23.73
2024-04-12T17:20:12.692Z,23.74
2024-04-12T17:22:42.091Z,23.73
2024-04-12T17:25:14.526Z,23.64
2024-04-12T17:27:42.914Z,23.67
2024-04-12T17:30:14.274Z,23.77
2024-04-12T17:32:41.443Z,23.71
2024-04-12T17:35:11.525Z,23.69
2024-04-12T17:37:38.355Z,23.56
2024-04-12T17:40:13.068Z,23.47
2024-04-12T17:42:40.201Z,23.49
2024-04-12T17:45:10.774Z,23.44
2024-04-12T17:47:37.640Z,23.35
2024-04-12T17:50:08.008Z,23.19
2024-04-12T17:52:35.010Z,23.17
2024-04-12T17:55:04.786Z,23.31
2024-04-12T17:57:34.573Z,23.49
2024-04-12T18:00:09.886Z,23.57
2024-04-12T18:02:37.107Z,23.36
2024-04-12T18:05:07.243Z,23.53
2024-04-12T18:07:37.151Z,23.15
2024-04-12T18:10:08.278Z,23.31
2024-04-12T18:12:37.966Z,23.28
2024-04-12T18:15:08.525Z,23.52
2024-04-12T18:17:35.614Z,23.51
2024-04-12T18:20:10.420Z,23.40
2024-04-12T18:22:40.996Z,22.88
2024-04-12T18:25:15.416Z,22.52
2024-04-12T18:27:51.373Z,22.76
2024-04-12T18:30:21.605Z,22.91
2024-04-12T18:32:49.113Z,22.39
2024-04-12T18:35:20.899Z,22.37
2024-04-12T18:38:07.638Z,22.04
2024-04-12T18:40:53.341Z,22.03
2024-04-12T18:43:41.756Z,21.87
2024-04-12T18:46:11.189Z,21.89
2024-04-12T18:48:41.566Z,22.01
2024-04-12T18:51:12.986Z,21.88
2024-04-12T18:53:42.530Z,21.74
2024-04-12T18:56:13.810Z,21.64
2024-04-12T18:58:47.377Z,21.87
2024-04-12T19:01:14.124Z,22.03
2024-04-12T19:03:46.832Z,21.94
2024-04-12T19:06:21.510Z,21.82
2024-04-12T19:08:51.180Z,21.99
2024-04-12T19:11:18.309Z,21.30
2024-04-12T19:13:53.218Z,21.27
2024-04-12T19:16:22.820Z,21.21
2024-04-12T19:18:52.271Z,21.53
2024-04-12T19:21:24.275Z,21.32
2024-04-12T19:23:55.710Z,21.23
2024-04-12T19:26:25.533Z,21.63
2024-04-12T19:28:58.460Z,21.24
2024-04-12T19:31:26.148Z,21.07
2024-04-12T19:33:56.649Z,21.05
2024-04-12T19:36:24.127Z,20.96
2024-04-12T19:39:01.120Z,21.09
2024-04-12T19:41:33.627Z,20.85
2024-04-12T19:44:08.841Z,20.63
2024-04-12T19:46:36.181Z,20.87
2024-04-12T19:49:11.838Z,20.75
2024-04-12T19:51:45.276Z,21.22
2024-04-12T19:54:12.367Z,21.20
2024-04-12T19:56:42.139Z,21.32
2024-04-12T19:59:12.579Z,21.34
2024-04-12T20:01:46.323Z,21.04
2024-04-12T20:04:16.300Z,21.37
2024-04-12T20:06:45.997Z,21.26
2024-04-12T20:09:15.929Z,21.17
2024-04-12T20:11:45.315Z,21.12
2024-04-12T20:14:20.708Z,21.17
2024-04-12T20:16:53.179Z,20.91
2024-04-12T20:19:20.415Z,20.82
2024-04-12T20:21:54.174Z,20.94
2024-04-12T20:24:29.444Z,20.82
2024-04-12T20:27:02.143Z,20.62
2024-04-12T20:29:31.675Z,20.31
2024-04-12T20:32:21.496Z,19.85
2024-04-12T20:35:09.791Z,19.93
2024-04-12T20:37:39.279Z,20.18
2024-04-12T20:40:07.923Z,20.17
2024-04-12T20:42:37.425Z,20.25
2024-04-12T20:45:08.890Z,20.30
2024-04-12T20:47:38.407Z,20.42
2024-04-12T20:50:06.124Z,20.07
2024-04-12T20:52:38.580Z,20.40
2024-04-12T20:55:06.511Z,20.50
2024-04-12T20:57:36.070Z,20.61
2024-04-12T21:00:03.381Z,20.25
2024-04-12T21:02:36.203Z,20.30
2024-04-12T21:05:10.244Z,20.24
2024-04-12T21:07:40.376Z,20.64
2024-04-12T21:10:12.110Z,20.56
2024-04-12T21:12:39.970Z,20.12
2024-04-12T21:15:10.072Z,20.41
2024-04-12T21:17:40.669Z,20.61
2024-04-12T21:20:16.438Z,20.64
2024-04-12T21:22:46.388Z,20.63
2024-04-12T21:25:15.717Z,20.31
2024-04-12T21:27:42.465Z,20.16
2024-04-12T21:30:12.957Z,20.13
2024-04-12T21:32:42.650Z,20.18
2024-04-12T21:35:12.201Z,20.08
2024-04-12T21:37:39.067Z,20.29
2024-04-12T21:40:09.529Z,20.18
2024-04-12T21:42:36.343Z,20.25
2024-04-12T21:45:08.984Z,20.06
2024-04-12T21:47:36.974Z,20.02
2024-04-12T21:50:10.254Z,20.15
2024-04-12T21:52:37.051Z,20.02
2024-04-12T21:55:06.533Z,19.87
2024-04-12T21:57:34.682Z,20.18
2024-04-12T22:00:05.250Z,20.26
2024-04-12T22:02:32.477Z,20.30
2024-04-12T22:05:01.893Z,19.86
2024-04-12T22:07:31.504Z,20.06
2024-04-12T22:10:00.841Z,19.88
2024-04-12T22:12:27.548Z,19.96
2024-04-12T22:14:57.256Z,19.84
2024-04-12T22:17:24.122Z,19.91
2024-04-12T22:19:53.712Z,19.81
2024-04-12T22:22:20.567Z,19.85
2024-04-12T22:24:54.391Z,19.81
2024-04-12T22:27:24.432Z,19.87
2024-04-12T22:29:53.915Z,19.67
2024-04-12T22:32:25.847Z,19.61
2024-04-12T22:34:55.931Z,19.35
2024-04-12T22:37:23.874Z,19.36
2024-04-12T22:39:58.438Z,19.34
2024-04-12T22:42:25.174Z,19.20
2024-04-12T22:44:57.869Z,18.93
2024-04-12T22:47:24.695Z,18.96
2024-04-12T22:49:56.009Z,19.16
2024-04-12T22:52:22.999Z,18.71
2024-04-12T22:54:52.324Z,17.98
2024-04-12T22:57:22.080Z,18.54
2024-04-12T22:59:51.832Z,18.47
2024-04-12T23:02:18.597Z,18.39
2024-04-12T23:04:50.879Z,18.32
2024-04-12T23:07:17.642Z,18.63
2024-04-12T23:09:50.114Z,18.90
2024-04-12T23:12:17.942Z,19.42
2024-04-12T23:14:51.302Z,19.51
2024-04-12T23:17:21.054Z,19.64
2024-04-12T23:19:51.555Z,19.32
2024-04-12T23:22:18.594Z,19.30
2024-04-12T23:24:50.951Z,19.31
2024-04-12T23:27:20.727Z,19.14
2024-04-12T23:29:54.515Z,19.14
2024-04-12T23:32:21.482Z,18.78
2024-04-12T23:34:50.832Z,18.04
2024-04-12T23:37:17.604Z,18.50
2024-04-12T23:39:47.044Z,18.62
2024-04-12T23:42:13.841Z,18.39
2024-04-12T23:44:44.388Z,17.77
2024-04-12T23:47:16.445Z,18.14
2024-04-12T23:49:47.599Z,18.58
2024-04-12T23:52:14.272Z,18.82
2024-04-12T23:54:43.626Z,18.82
2024-04-12T23:57:10.400Z,18.68
2024-04-12T23:59:39.940Z,18.66
